sensor_id;sensor_type;location;lat;lon;timestamp;pressure;altitude;pressure_sealevel;temperature
80820;BMP280;70225;48.404;8.016;2023-06-22T05:26:55;99498.09;;;23.71
80820;BMP280;70225;48.404;8.016;2023-06-22T05:29:21;99492.94;;;23.00
80820;BMP280;70225;48.404;8.016;2023-06-22T05:31:46;99494.94;;;22.60
80820;BMP280;70225;48.404;8.016;2023-06-22T05:34:11;99493.91;;;22.40
80820;BMP280;70225;48.404;8.016;2023-06-22T05:36:37;99489.16;;;22.33
80820;BMP280;70225;48.404;8.016;2023-06-22T05:39:36;99487.19;;;22.26
80820;BMP280;70225;48.404;8.016;2023-06-22T05:45:25;99491.22;;;22.25
80820;BMP280;70225;48.404;8.016;2023-06-22T05:47:50;99498.81;;;22.34
80820;BMP280;70225;48.404;8.016;2023-06-22T05:50:49;99496.81;;;22.35
80820;BMP280;70225;48.404;8.016;2023-06-22T05:53:17;99491.19;;;22.40
80820;BMP280;70225;48.404;8.016;2023-06-22T05:55:55;99493.31;;;22.49
80820;BMP280;70225;48.404;8.016;2023-06-22T05:58:37;99496.22;;;22.59
80820;BMP280;70225;48.404;8.016;2023-06-22T06:01:28;99502.56;;;22.62
80820;BMP280;70225;48.404;8.016;2023-06-22T06:03:53;99489.25;;;22.66
80820;BMP280;70225;48.404;8.016;2023-06-22T06:06:27;99497.41;;;22.73
80820;BMP280;70225;48.404;8.016;2023-06-22T06:08:53;99489.22;;;22.81
80820;BMP280;70225;48.404;8.016;2023-06-22T06:11:18;99482.97;;;22.88
80820;BMP280;70225;48.404;8.016;2023-06-22T06:13:43;99490.59;;;22.97
80820;BMP280;70225;48.404;8.016;2023-06-22T06:16:43;99484.00;;;23.00
80820;BMP280;70225;48.404;8.016;2023-06-22T06:19:11;99482.78;;;22.93
80820;BMP280;70225;48.404;8.016;2023-06-22T06:21:36;99495.00;;;22.92
80820;BMP280;70225;48.404;8.016;2023-06-22T06:24:02;99500.09;;;22.88
80820;BMP280;70225;48.404;8.016;2023-06-22T06:26:27;99497.66;;;23.00
80820;BMP280;70225;48.404;8.016;2023-06-22T06:28:52;99492.16;;;23.08
80820;BMP280;70225;48.404;8.016;2023-06-22T06:31:17;99492.66;;;23.14
80820;BMP280;70225;48.404;8.016;2023-06-22T06:33:42;99480.94;;;23.21
80820;BMP280;70225;48.404;8.016;2023-06-22T06:36:07;99480.13;;;23.35
80820;BMP280;70225;48.404;8.016;2023-06-22T06:38:33;99484.97;;;23.44
80820;BMP280;70225;48.404;8.016;2023-06-22T06:40:58;99494.22;;;23.57
80820;BMP280;70225;48.404;8.016;2023-06-22T06:43:23;99513.06;;;23.70
80820;BMP280;70225;48.404;8.016;2023-06-22T06:45:49;99519.69;;;23.84
80820;BMP280;70225;48.404;8.016;2023-06-22T06:48:14;99531.28;;;23.92
80820;BMP280;70225;48.404;8.016;2023-06-22T06:50:39;99532.25;;;24.04
80820;BMP280;70225;48.404;8.016;2023-06-22T06:53:04;99530.75;;;24.11
80820;BMP280;70225;48.404;8.016;2023-06-22T06:55:29;99520.03;;;24.22
80820;BMP280;70225;48.404;8.016;2023-06-22T06:57:54;99514.75;;;24.24
80820;BMP280;70225;48.404;8.016;2023-06-22T07:00:20;99517.16;;;24.37
80820;BMP280;70225;48.404;8.016;2023-06-22T07:02:45;99514.84;;;24.61
80820;BMP280;70225;48.404;8.016;2023-06-22T07:05:11;99518.34;;;24.88
80820;BMP280;70225;48.404;8.016;2023-06-22T07:07:37;99529.31;;;25.15
80820;BMP280;70225;48.404;8.016;2023-06-22T07:10:03;99522.91;;;25.39
80820;BMP280;70225;48.404;8.016;2023-06-22T07:12:29;99530.34;;;25.56
80820;BMP280;70225;48.404;8.016;2023-06-22T07:15:01;99527.88;;;25.60
80820;BMP280;70225;48.404;8.016;2023-06-22T07:17:26;99537.88;;;25.74
80820;BMP280;70225;48.404;8.016;2023-06-22T07:19:51;99549.03;;;25.86
80820;BMP280;70225;48.404;8.016;2023-06-22T07:22:17;99549.19;;;25.98
80820;BMP280;70225;48.404;8.016;2023-06-22T07:24:42;99559.59;;;26.09
80820;BMP280;70225;48.404;8.016;2023-06-22T07:27:07;99587.09;;;26.18
80820;BMP280;70225;48.404;8.016;2023-06-22T07:29:32;99630.00;;;26.23
80820;BMP280;70225;48.404;8.016;2023-06-22T07:31:57;99640.72;;;26.19
80820;BMP280;70225;48.404;8.016;2023-06-22T07:34:22;99629.25;;;26.04
80820;BMP280;70225;48.404;8.016;2023-06-22T07:36:48;99634.41;;;25.90
80820;BMP280;70225;48.404;8.016;2023-06-22T07:39:13;99608.25;;;25.80
80820;BMP280;70225;48.404;8.016;2023-06-22T07:41:39;99536.00;;;25.67
80820;BMP280;70225;48.404;8.016;2023-06-22T07:44:04;99529.34;;;25.70
80820;BMP280;70225;48.404;8.016;2023-06-22T07:46:30;99532.56;;;25.86
80820;BMP280;70225;48.404;8.016;2023-06-22T07:48:56;99513.06;;;26.01
80820;BMP280;70225;48.404;8.016;2023-06-22T07:51:21;99500.63;;;26.10
80820;BMP280;70225;48.404;8.016;2023-06-22T07:53:46;99514.66;;;26.23
80820;BMP280;70225;48.404;8.016;2023-06-22T07:56:11;99502.50;;;26.27
80820;BMP280;70225;48.404;8.016;2023-06-22T07:58:37;99526.06;;;26.30
80820;BMP280;70225;48.404;8.016;2023-06-22T08:01:02;99534.91;;;26.38
80820;BMP280;70225;48.404;8.016;2023-06-22T08:03:27;99535.03;;;26.49
80820;BMP280;70225;48.404;8.016;2023-06-22T08:05:52;99545.41;;;26.60
80820;BMP280;70225;48.404;8.016;2023-06-22T08:08:17;99551.94;;;26.65
80820;BMP280;70225;48.404;8.016;2023-06-22T08:10:43;99557.09;;;26.80
80820;BMP280;70225;48.404;8.016;2023-06-22T08:13:08;99553.91;;;26.93
80820;BMP280;70225;48.404;8.016;2023-06-22T08:15:33;99559.78;;;27.09
80820;BMP280;70225;48.404;8.016;2023-06-22T08:17:58;99571.63;;;27.21
80820;BMP280;70225;48.404;8.016;2023-06-22T08:20:24;99566.78;;;27.31
80820;BMP280;70225;48.404;8.016;2023-06-22T08:22:49;99544.16;;;27.33
80820;BMP280;70225;48.404;8.016;2023-06-22T08:25:14;99537.22;;;27.41
80820;BMP280;70225;48.404;8.016;2023-06-22T08:27:39;99526.97;;;27.53
80820;BMP280;70225;48.404;8.016;2023-06-22T08:30:06;99523.97;;;27.71
80820;BMP280;70225;48.404;8.016;2023-06-22T08:32:31;99536.09;;;27.77
80820;BMP280;70225;48.404;8.016;2023-06-22T08:34:57;99511.19;;;27.96
80820;BMP280;70225;48.404;8.016;2023-06-22T08:37:22;99515.66;;;28.13
80820;BMP280;70225;48.404;8.016;2023-06-22T08:39:48;99499.81;;;28.35
80820;BMP280;70225;48.404;8.016;2023-06-22T08:42:13;99503.44;;;28.49
80820;BMP280;70225;48.404;8.016;2023-06-22T08:44:38;99506.22;;;28.72
80820;BMP280;70225;48.404;8.016;2023-06-22T08:47:03;99502.75;;;28.95
80820;BMP280;70225;48.404;8.016;2023-06-22T08:49:29;99505.97;;;29.14
80820;BMP280;70225;48.404;8.016;2023-06-22T08:51:54;99518.66;;;29.31
80820;BMP280;70225;48.404;8.016;2023-06-22T08:54:19;99502.81;;;29.43
80820;BMP280;70225;48.404;8.016;2023-06-22T08:56:44;99493.06;;;29.54
80820;BMP280;70225;48.404;8.016;2023-06-22T08:59:09;99483.81;;;29.61
80820;BMP280;70225;48.404;8.016;2023-06-22T09:01:34;99464.91;;;29.69
80820;BMP280;70225;48.404;8.016;2023-06-22T09:04:00;99450.72;;;29.75
80820;BMP280;70225;48.404;8.016;2023-06-22T09:06:25;99456.69;;;29.83
80820;BMP280;70225;48.404;8.016;2023-06-22T09:08:50;99456.31;;;29.88
80820;BMP280;70225;48.404;8.016;2023-06-22T09:11:16;99446.81;;;29.91
80820;BMP280;70225;48.404;8.016;2023-06-22T09:13:41;99435.84;;;29.93
80820;BMP280;70225;48.404;8.016;2023-06-22T09:16:06;99428.78;;;29.90
80820;BMP280;70225;48.404;8.016;2023-06-22T09:18:31;99429.50;;;29.91
80820;BMP280;70225;48.404;8.016;2023-06-22T09:20:57;99424.44;;;29.87
80820;BMP280;70225;48.404;8.016;2023-06-22T09:23:22;99430.59;;;29.86
80820;BMP280;70225;48.404;8.016;2023-06-22T09:25:47;99434.53;;;29.94
80820;BMP280;70225;48.404;8.016;2023-06-22T09:28:12;99431.47;;;30.02
80820;BMP280;70225;48.404;8.016;2023-06-22T09:30:37;99455.34;;;30.23
80820;BMP280;70225;48.404;8.016;2023-06-22T09:33:03;99468.88;;;30.30
80820;BMP280;70225;48.404;8.016;2023-06-22T09:35:28;99463.47;;;30.18
80820;BMP280;70225;48.404;8.016;2023-06-22T09:37:53;99449.63;;;30.18
80820;BMP280;70225;48.404;8.016;2023-06-22T09:40:18;99440.81;;;30.08
80820;BMP280;70225;48.404;8.016;2023-06-22T09:42:43;99436.34;;;30.15
80820;BMP280;70225;48.404;8.016;2023-06-22T09:45:09;99422.44;;;30.27
80820;BMP280;70225;48.404;8.016;2023-06-22T09:47:34;99417.09;;;30.31
80820;BMP280;70225;48.404;8.016;2023-06-22T09:49:59;99409.44;;;30.43
80820;BMP280;70225;48.404;8.016;2023-06-22T09:52:24;99400.66;;;30.60
80820;BMP280;70225;48.404;8.016;2023-06-22T09:54:50;99385.47;;;30.75
80820;BMP280;70225;48.404;8.016;2023-06-22T09:57:15;99388.81;;;30.87
80820;BMP280;70225;48.404;8.016;2023-06-22T09:59:40;99383.88;;;30.99
80820;BMP280;70225;48.404;8.016;2023-06-22T10:02:06;99391.31;;;31.10
80820;BMP280;70225;48.404;8.016;2023-06-22T10:04:31;99401.03;;;31.25
80820;BMP280;70225;48.404;8.016;2023-06-22T10:06:57;99403.03;;;31.38
80820;BMP280;70225;48.404;8.016;2023-06-22T10:09:22;99402.28;;;31.51
80820;BMP280;70225;48.404;8.016;2023-06-22T10:11:47;99409.41;;;31.56
80820;BMP280;70225;48.404;8.016;2023-06-22T10:14:12;99407.38;;;31.56
80820;BMP280;70225;48.404;8.016;2023-06-22T10:16:37;99410.06;;;31.70
80820;BMP280;70225;48.404;8.016;2023-06-22T10:19:02;99407.22;;;31.84
80820;BMP280;70225;48.404;8.016;2023-06-22T10:21:28;99394.00;;;31.98
80820;BMP280;70225;48.404;8.016;2023-06-22T10:23:53;99386.22;;;31.94
80820;BMP280;70225;48.404;8.016;2023-06-22T10:26:18;99379.16;;;32.07
80820;BMP280;70225;48.404;8.016;2023-06-22T14:08:00;99334.38;;;34.56
80820;BMP280;70225;48.404;8.016;2023-06-22T14:21:45;99367.53;;;34.70
